sensor_id;sensor_type;location;lat;lon;timestamp;P1;durP1;ratioP1;P2;durP2;ratioP2
29430;SDS011;16404;49.902;10.074;2023-06-22T00:01:10;19.65;;;16.02;;
29430;SDS011;16404;49.902;10.074;2023-06-22T00:03:54;21.65;;;19.20;;
29430;SDS011;16404;49.902;10.074;2023-06-22T00:06:39;21.20;;;17.20;;
29430;SDS011;16404;49.902;10.074;2023-06-22T00:09:24;21.50;;;17.17;;
29430;SDS011;16404;49.902;10.074;2023-06-22T00:12:08;24.17;;;18.02;;
29430;SDS011;16404;49.902;10.074;2023-06-22T00:14:53;24.00;;;20.23;;
29430;SDS011;16404;49.902;10.074;2023-06-22T00:17:38;24.05;;;17.98;;
29430;SDS011;16404;49.902;10.074;2023-06-22T00:20:22;21.33;;;18.13;;
29430;SDS011;16404;49.902;10.074;2023-06-22T00:23:11;24.00;;;18.40;;
29430;SDS011;16404;49.902;10.074;2023-06-22T00:25:59;25.30;;;18.75;;
29430;SDS011;16404;49.902;10.074;2023-06-22T00:28:44;22.33;;;15.35;;
29430;SDS011;16404;49.902;10.074;2023-06-22T00:31:28;19.98;;;17.27;;
29430;SDS011;16404;49.902;10.074;2023-06-22T00:34:13;25.45;;;18.90;;
29430;SDS011;16404;49.902;10.074;2023-06-22T00:36:58;22.77;;;18.88;;
29430;SDS011;16404;49.902;10.074;2023-06-22T00:39:43;22.10;;;18.58;;
29430;SDS011;16404;49.902;10.074;2023-06-22T00:42:28;25.15;;;20.35;;
29430;SDS011;16404;49.902;10.074;2023-06-22T00:45:13;29.08;;;19.38;;
29430;SDS011;16404;49.902;10.074;2023-06-22T00:47:58;30.20;;;18.77;;
29430;SDS011;16404;49.902;10.074;2023-06-22T00:50:42;29.83;;;20.30;;
29430;SDS011;16404;49.902;10.074;2023-06-22T00:53:27;21.92;;;18.58;;
29430;SDS011;16404;49.902;10.074;2023-06-22T00:56:12;24.88;;;19.25;;
29430;SDS011;16404;49.902;10.074;2023-06-22T00:58:58;23.00;;;17.73;;
29430;SDS011;16404;49.902;10.074;2023-06-22T01:01:44;21.42;;;17.75;;
29430;SDS011;16404;49.902;10.074;2023-06-22T01:04:34;24.88;;;17.15;;
29430;SDS011;16404;49.902;10.074;2023-06-22T01:07:25;23.88;;;18.33;;
29430;SDS011;16404;49.902;10.074;2023-06-22T01:16:29;29.38;;;18.90;;
29430;SDS011;16404;49.902;10.074;2023-06-22T01:22:44;24.98;;;17.48;;
29430;SDS011;16404;49.902;10.074;2023-06-22T01:28:50;22.67;;;17.38;;
29430;SDS011;16404;49.902;10.074;2023-06-22T01:31:38;23.90;;;16.58;;
29430;SDS011;16404;49.902;10.074;2023-06-22T01:34:25;17.27;;;14.18;;
29430;SDS011;16404;49.902;10.074;2023-06-22T01:39:54;26.20;;;16.67;;
29430;SDS011;16404;49.902;10.074;2023-06-22T01:42:40;23.38;;;17.30;;
29430;SDS011;16404;49.902;10.074;2023-06-22T01:45:27;23.52;;;16.10;;
29430;SDS011;16404;49.902;10.074;2023-06-22T01:48:11;22.58;;;15.90;;
29430;SDS011;16404;49.902;10.074;2023-06-22T01:50:56;22.05;;;15.45;;
29430;SDS011;16404;49.902;10.074;2023-06-22T01:53:41;20.98;;;15.70;;
29430;SDS011;16404;49.902;10.074;2023-06-22T01:56:26;22.92;;;17.02;;
29430;SDS011;16404;49.902;10.074;2023-06-22T02:02:04;20.65;;;16.98;;
29430;SDS011;16404;49.902;10.074;2023-06-22T02:04:59;22.40;;;15.75;;
29430;SDS011;16404;49.902;10.074;2023-06-22T02:11:05;25.08;;;15.73;;
29430;SDS011;16404;49.902;10.074;2023-06-22T02:13:53;25.02;;;16.73;;
29430;SDS011;16404;49.902;10.074;2023-06-22T02:16:39;27.27;;;17.02;;
29430;SDS011;16404;49.902;10.074;2023-06-22T02:19:24;20.48;;;15.27;;
29430;SDS011;16404;49.902;10.074;2023-06-22T02:22:10;22.17;;;16.20;;
29430;SDS011;16404;49.902;10.074;2023-06-22T02:24:56;19.65;;;15.02;;
29430;SDS011;16404;49.902;10.074;2023-06-22T02:27:43;24.67;;;17.50;;
29430;SDS011;16404;49.902;10.074;2023-06-22T02:30:27;23.98;;;15.90;;
29430;SDS011;16404;49.902;10.074;2023-06-22T02:33:12;24.40;;;17.98;;
29430;SDS011;16404;49.902;10.074;2023-06-22T02:35:56;22.10;;;16.92;;
29430;SDS011;16404;49.902;10.074;2023-06-22T02:38:41;24.77;;;18.48;;
29430;SDS011;16404;49.902;10.074;2023-06-22T02:41:31;24.17;;;15.75;;
29430;SDS011;16404;49.902;10.074;2023-06-22T02:44:16;24.77;;;18.90;;
29430;SDS011;16404;49.902;10.074;2023-06-22T02:47:00;24.23;;;18.63;;
29430;SDS011;16404;49.902;10.074;2023-06-22T02:49:45;28.65;;;20.85;;
29430;SDS011;16404;49.902;10.074;2023-06-22T02:52:30;30.08;;;21.40;;
29430;SDS011;16404;49.902;10.074;2023-06-22T02:55:15;30.63;;;22.08;;
29430;SDS011;16404;49.902;10.074;2023-06-22T02:58:04;29.35;;;21.83;;
29430;SDS011;16404;49.902;10.074;2023-06-22T03:00:52;27.42;;;19.90;;
29430;SDS011;16404;49.902;10.074;2023-06-22T03:03:37;25.33;;;19.17;;
29430;SDS011;16404;49.902;10.074;2023-06-22T03:06:21;28.00;;;20.77;;
29430;SDS011;16404;49.902;10.074;2023-06-22T03:09:07;31.02;;;21.98;;
29430;SDS011;16404;49.902;10.074;2023-06-22T03:11:53;31.98;;;19.73;;
29430;SDS011;16404;49.902;10.074;2023-06-22T03:14:39;26.48;;;19.63;;
29430;SDS011;16404;49.902;10.074;2023-06-22T03:17:24;27.88;;;21.08;;
29430;SDS011;16404;49.902;10.074;2023-06-22T03:20:09;26.05;;;19.45;;
29430;SDS011;16404;49.902;10.074;2023-06-22T03:22:55;24.23;;;18.67;;
29430;SDS011;16404;49.902;10.074;2023-06-22T03:28:25;25.15;;;18.95;;
29430;SDS011;16404;49.902;10.074;2023-06-22T03:31:09;24.42;;;19.30;;
29430;SDS011;16404;49.902;10.074;2023-06-22T03:33:56;24.42;;;19.20;;
29430;SDS011;16404;49.902;10.074;2023-06-22T03:39:28;26.30;;;19.05;;
29430;SDS011;16404;49.902;10.074;2023-06-22T03:42:13;26.80;;;19.58;;
29430;SDS011;16404;49.902;10.074;2023-06-22T03:44:58;21.35;;;16.50;;
29430;SDS011;16404;49.902;10.074;2023-06-22T03:47:43;23.45;;;19.52;;
29430;SDS011;16404;49.902;10.074;2023-06-22T03:50:27;28.58;;;20.85;;
29430;SDS011;16404;49.902;10.074;2023-06-22T03:53:12;25.33;;;20.85;;
29430;SDS011;16404;49.902;10.074;2023-06-22T03:55:57;26.08;;;19.70;;
29430;SDS011;16404;49.902;10.074;2023-06-22T03:58:41;26.77;;;21.37;;
29430;SDS011;16404;49.902;10.074;2023-06-22T04:01:28;26.92;;;19.60;;
29430;SDS011;16404;49.902;10.074;2023-06-22T04:04:13;24.77;;;19.67;;
29430;SDS011;16404;49.902;10.074;2023-06-22T04:06:57;29.65;;;21.13;;
29430;SDS011;16404;49.902;10.074;2023-06-22T04:09:42;28.38;;;20.10;;
29430;SDS011;16404;49.902;10.074;2023-06-22T04:12:26;24.58;;;19.80;;
29430;SDS011;16404;49.902;10.074;2023-06-22T04:15:11;26.23;;;19.60;;
29430;SDS011;16404;49.902;10.074;2023-06-22T04:17:56;28.88;;;20.98;;
29430;SDS011;16404;49.902;10.074;2023-06-22T04:20:40;26.30;;;19.95;;
29430;SDS011;16404;49.902;10.074;2023-06-22T04:23:25;24.38;;;20.10;;
29430;SDS011;16404;49.902;10.074;2023-06-22T04:26:10;26.73;;;21.75;;
29430;SDS011;16404;49.902;10.074;2023-06-22T04:28:54;30.15;;;20.05;;
29430;SDS011;16404;49.902;10.074;2023-06-22T04:31:39;26.08;;;20.90;;
29430;SDS011;16404;49.902;10.074;2023-06-22T04:34:25;28.90;;;20.13;;
29430;SDS011;16404;49.902;10.074;2023-06-22T04:37:12;27.23;;;20.25;;
29430;SDS011;16404;49.902;10.074;2023-06-22T04:39:59;24.77;;;18.88;;
29430;SDS011;16404;49.902;10.074;2023-06-22T04:42:43;22.83;;;18.52;;
29430;SDS011;16404;49.902;10.074;2023-06-22T04:45:35;20.88;;;17.95;;
29430;SDS011;16404;49.902;10.074;2023-06-22T04:48:22;21.92;;;17.85;;
29430;SDS011;16404;49.902;10.074;2023-06-22T04:51:06;22.67;;;17.58;;
29430;SDS011;16404;49.902;10.074;2023-06-22T04:53:52;20.33;;;18.00;;
29430;SDS011;16404;49.902;10.074;2023-06-22T04:56:44;20.52;;;16.17;;
29430;SDS011;16404;49.902;10.074;2023-06-22T04:59:31;24.05;;;18.00;;
29430;SDS011;16404;49.902;10.074;2023-06-22T05:05:00;21.48;;;15.95;;
29430;SDS011;16404;49.902;10.074;2023-06-22T05:07:45;23.90;;;16.92;;
29430;SDS011;16404;49.902;10.074;2023-06-22T05:10:32;19.13;;;16.02;;
29430;SDS011;16404;49.902;10.074;2023-06-22T05:13:17;21.38;;;15.95;;
29430;SDS011;16404;49.902;10.074;2023-06-22T05:16:01;22.90;;;15.75;;
29430;SDS011;16404;49.902;10.074;2023-06-22T05:18:46;22.63;;;15.98;;
29430;SDS011;16404;49.902;10.074;2023-06-22T05:21:31;18.55;;;16.60;;
29430;SDS011;16404;49.902;10.074;2023-06-22T05:24:15;19.70;;;16.13;;
29430;SDS011;16404;49.902;10.074;2023-06-22T05:27:00;25.13;;;16.77;;
29430;SDS011;16404;49.902;10.074;2023-06-22T05:29:45;25.50;;;18.05;;
29430;SDS011;16404;49.902;10.074;2023-06-22T05:32:29;20.40;;;16.80;;
29430;SDS011;16404;49.902;10.074;2023-06-22T05:35:14;18.75;;;15.90;;
29430;SDS011;16404;49.902;10.074;2023-06-22T05:37:58;23.25;;;15.77;;
29430;SDS011;16404;49.902;10.074;2023-06-22T05:40:43;19.90;;;14.68;;
29430;SDS011;16404;49.902;10.074;2023-06-22T05:43:28;20.70;;;14.90;;
29430;SDS011;16404;49.902;10.074;2023-06-22T05:46:12;18.45;;;15.55;;
29430;SDS011;16404;49.902;10.074;2023-06-22T05:48:57;17.52;;;14.98;;
29430;SDS011;16404;49.902;10.074;2023-06-22T05:51:42;18.42;;;13.70;;
29430;SDS011;16404;49.902;10.074;2023-06-22T05:54:27;18.33;;;14.18;;
29430;SDS011;16404;49.902;10.074;2023-06-22T05:57:11;23.48;;;14.68;;
29430;SDS011;16404;49.902;10.074;2023-06-22T05:59:56;16.30;;;14.05;;
29430;SDS011;16404;49.902;10.074;2023-06-22T06:02:41;19.42;;;13.23;;
29430;SDS011;16404;49.902;10.074;2023-06-22T06:05:27;23.02;;;13.93;;
29430;SDS011;16404;49.902;10.074;2023-06-22T06:08:12;19.88;;;13.35;;
29430;SDS011;16404;49.902;10.074;2023-06-22T06:10:56;22.33;;;12.30;;
29430;SDS011;16404;49.902;10.074;2023-06-22T06:13:41;18.60;;;13.65;;
29430;SDS011;16404;49.902;10.074;2023-06-22T06:16:26;19.92;;;13.32;;
29430;SDS011;16404;49.902;10.074;2023-06-22T06:19:10;20.40;;;12.68;;
29430;SDS011;16404;49.902;10.074;2023-06-22T06:21:55;16.05;;;13.63;;
29430;SDS011;16404;49.902;10.074;2023-06-22T06:24:39;14.40;;;12.45;;
29430;SDS011;16404;49.902;10.074;2023-06-22T06:27:24;18.17;;;12.43;;
29430;SDS011;16404;49.902;10.074;2023-06-22T06:30:13;15.20;;;12.00;;
29430;SDS011;16404;49.902;10.074;2023-06-22T06:32:58;16.30;;;12.50;;
29430;SDS011;16404;49.902;10.074;2023-06-22T06:35:43;16.42;;;12.93;;
29430;SDS011;16404;49.902;10.074;2023-06-22T06:38:27;16.00;;;13.05;;
29430;SDS011;16404;49.902;10.074;2023-06-22T06:41:15;15.32;;;13.23;;
29430;SDS011;16404;49.902;10.074;2023-06-22T06:44:00;17.25;;;13.60;;
29430;SDS011;16404;49.902;10.074;2023-06-22T06:46:44;17.27;;;14.15;;
29430;SDS011;16404;49.902;10.074;2023-06-22T06:49:29;18.83;;;13.35;;
29430;SDS011;16404;49.902;10.074;2023-06-22T06:52:14;19.15;;;13.50;;
29430;SDS011;16404;49.902;10.074;2023-06-22T06:54:59;23.15;;;13.70;;
29430;SDS011;16404;49.902;10.074;2023-06-22T06:57:43;14.80;;;13.13;;
29430;SDS011;16404;49.902;10.074;2023-06-22T07:00:27;15.98;;;12.88;;
29430;SDS011;16404;49.902;10.074;2023-06-22T07:03:12;18.25;;;13.57;;
29430;SDS011;16404;49.902;10.074;2023-06-22T07:05:56;19.75;;;14.38;;
29430;SDS011;16404;49.902;10.074;2023-06-22T07:08:41;16.35;;;13.10;;
29430;SDS011;16404;49.902;10.074;2023-06-22T07:11:26;15.40;;;12.80;;
29430;SDS011;16404;49.902;10.074;2023-06-22T07:14:11;17.95;;;14.13;;
29430;SDS011;16404;49.902;10.074;2023-06-22T07:16:56;14.98;;;12.25;;
29430;SDS011;16404;49.902;10.074;2023-06-22T07:19:40;15.82;;;12.77;;
29430;SDS011;16404;49.902;10.074;2023-06-22T07:22:26;17.75;;;12.23;;
29430;SDS011;16404;49.902;10.074;2023-06-22T07:25:10;14.35;;;12.75;;
29430;SDS011;16404;49.902;10.074;2023-06-22T07:28:02;14.68;;;11.93;;
29430;SDS011;16404;49.902;10.074;2023-06-22T07:30:47;17.17;;;12.20;;
29430;SDS011;16404;49.902;10.074;2023-06-22T07:33:32;14.65;;;11.75;;
29430;SDS011;16404;49.902;10.074;2023-06-22T07:36:17;16.77;;;12.63;;
29430;SDS011;16404;49.902;10.074;2023-06-22T07:39:02;22.45;;;12.82;;
29430;SDS011;16404;49.902;10.074;2023-06-22T07:41:47;16.83;;;11.98;;
29430;SDS011;16404;49.902;10.074;2023-06-22T07:44:32;13.77;;;12.35;;
29430;SDS011;16404;49.902;10.074;2023-06-22T07:47:16;21.80;;;13.43;;
29430;SDS011;16404;49.902;10.074;2023-06-22T07:50:08;14.23;;;12.70;;
29430;SDS011;16404;49.902;10.074;2023-06-22T07:52:53;17.35;;;12.73;;
29430;SDS011;16404;49.902;10.074;2023-06-22T07:55:38;14.57;;;13.02;;
29430;SDS011;16404;49.902;10.074;2023-06-22T08:01:07;16.45;;;12.40;;
29430;SDS011;16404;49.902;10.074;2023-06-22T08:03:51;13.73;;;12.25;;
29430;SDS011;16404;49.902;10.074;2023-06-22T08:06:36;15.10;;;12.98;;
29430;SDS011;16404;49.902;10.074;2023-06-22T08:09:21;16.48;;;11.90;;
29430;SDS011;16404;49.902;10.074;2023-06-22T08:12:05;18.52;;;11.48;;
29430;SDS011;16404;49.902;10.074;2023-06-22T08:14:50;15.32;;;11.98;;
29430;SDS011;16404;49.902;10.074;2023-06-22T08:17:36;18.38;;;13.02;;
29430;SDS011;16404;49.902;10.074;2023-06-22T08:20:21;16.08;;;12.15;;
29430;SDS011;16404;49.902;10.074;2023-06-22T08:25:50;17.77;;;12.50;;
29430;SDS011;16404;49.902;10.074;2023-06-22T08:28:35;14.85;;;10.82;;
29430;SDS011;16404;49.902;10.074;2023-06-22T08:31:19;13.23;;;10.93;;
29430;SDS011;16404;49.902;10.074;2023-06-22T08:34:04;13.80;;;10.85;;
29430;SDS011;16404;49.902;10.074;2023-06-22T08:36:48;13.98;;;10.50;;
29430;SDS011;16404;49.902;10.074;2023-06-22T08:39:35;12.05;;;9.55;;
29430;SDS011;16404;49.902;10.074;2023-06-22T08:42:19;9.85;;;8.63;;
29430;SDS011;16404;49.902;10.074;2023-06-22T08:45:04;12.68;;;9.02;;
29430;SDS011;16404;49.902;10.074;2023-06-22T08:47:49;13.88;;;9.02;;
29430;SDS011;16404;49.902;10.074;2023-06-22T08:50:34;13.38;;;8.80;;
29430;SDS011;16404;49.902;10.074;2023-06-22T08:56:02;10.82;;;8.77;;
29430;SDS011;16404;49.902;10.074;2023-06-22T08:58:47;10.50;;;8.90;;
29430;SDS011;16404;49.902;10.074;2023-06-22T09:01:32;13.23;;;9.10;;
29430;SDS011;16404;49.902;10.074;2023-06-22T09:07:01;10.98;;;7.63;;
29430;SDS011;16404;49.902;10.074;2023-06-22T09:09:45;12.55;;;7.93;;
29430;SDS011;16404;49.902;10.074;2023-06-22T09:12:30;13.45;;;8.60;;
29430;SDS011;16404;49.902;10.074;2023-06-22T09:15:16;11.60;;;8.13;;
29430;SDS011;16404;49.902;10.074;2023-06-22T09:20:45;11.48;;;8.40;;
29430;SDS011;16404;49.902;10.074;2023-06-22T09:23:30;9.40;;;8.43;;
29430;SDS011;16404;49.902;10.074;2023-06-22T09:26:14;12.10;;;8.95;;
29430;SDS011;16404;49.902;10.074;2023-06-22T09:31:43;10.32;;;8.43;;
29430;SDS011;16404;49.902;10.074;2023-06-22T09:34:28;9.00;;;7.45;;
29430;SDS011;16404;49.902;10.074;2023-06-22T09:37:14;9.13;;;6.72;;
29430;SDS011;16404;49.902;10.074;2023-06-22T09:39:59;14.05;;;6.93;;
29430;SDS011;16404;49.902;10.074;2023-06-22T09:45:28;10.75;;;7.93;;
29430;SDS011;16404;49.902;10.074;2023-06-22T09:48:12;10.23;;;7.53;;
29430;SDS011;16404;49.902;10.074;2023-06-22T09:50:57;8.57;;;7.68;;
29430;SDS011;16404;49.902;10.074;2023-06-22T09:56:26;11.77;;;8.02;;
29430;SDS011;16404;49.902;10.074;2023-06-22T09:59:12;9.57;;;7.72;;
29430;SDS011;16404;49.902;10.074;2023-06-22T10:01:56;8.85;;;7.80;;
29430;SDS011;16404;49.902;10.074;2023-06-22T10:04:41;9.55;;;7.43;;
29430;SDS011;16404;49.902;10.074;2023-06-22T10:07:25;10.02;;;6.90;;
29430;SDS011;16404;49.902;10.074;2023-06-22T10:10:10;11.35;;;7.32;;
29430;SDS011;16404;49.902;10.074;2023-06-22T10:12:56;7.78;;;6.40;;
29430;SDS011;16404;49.902;10.074;2023-06-22T10:15:41;8.32;;;6.90;;
29430;SDS011;16404;49.902;10.074;2023-06-22T10:18:26;9.90;;;7.15;;
29430;SDS011;16404;49.902;10.074;2023-06-22T10:21:11;9.20;;;6.95;;
29430;SDS011;16404;49.902;10.074;2023-06-22T10:26:40;7.35;;;6.65;;
29430;SDS011;16404;49.902;10.074;2023-06-22T10:32:09;9.35;;;6.55;;
29430;SDS011;16404;49.902;10.074;2023-06-22T10:37:37;10.80;;;5.60;;
29430;SDS011;16404;49.902;10.074;2023-06-22T10:43:06;7.90;;;5.95;;
29430;SDS011;16404;49.902;10.074;2023-06-22T10:45:51;7.40;;;5.80;;
29430;SDS011;16404;49.902;10.074;2023-06-22T10:48:35;7.00;;;6.13;;
29430;SDS011;16404;49.902;10.074;2023-06-22T10:51:20;10.63;;;5.20;;
29430;SDS011;16404;49.902;10.074;2023-06-22T10:54:05;7.82;;;5.00;;
29430;SDS011;16404;49.902;10.074;2023-06-22T10:59:34;22.02;;;5.35;;
29430;SDS011;16404;49.902;10.074;2023-06-22T11:02:19;7.43;;;4.97;;
29430;SDS011;16404;49.902;10.074;2023-06-22T11:05:03;10.18;;;5.85;;
29430;SDS011;16404;49.902;10.074;2023-06-22T11:07:48;9.52;;;5.40;;
29430;SDS011;16404;49.902;10.074;2023-06-22T11:13:17;7.82;;;5.47;;
29430;SDS011;16404;49.902;10.074;2023-06-22T11:16:02;12.57;;;5.30;;
29430;SDS011;16404;49.902;10.074;2023-06-22T11:21:31;9.23;;;5.20;;
29430;SDS011;16404;49.902;10.074;2023-06-22T11:24:16;11.38;;;5.68;;
29430;SDS011;16404;49.902;10.074;2023-06-22T11:27:01;8.65;;;5.10;;
29430;SDS011;16404;49.902;10.074;2023-06-22T11:32:30;7.82;;;5.05;;
29430;SDS011;16404;49.902;10.074;2023-06-22T11:35:14;9.07;;;5.15;;
29430;SDS011;16404;49.902;10.074;2023-06-22T11:37:59;11.27;;;5.38;;
29430;SDS011;16404;49.902;10.074;2023-06-22T11:40:43;9.13;;;4.65;;
29430;SDS011;16404;49.902;10.074;2023-06-22T11:46:12;7.78;;;4.80;;
29430;SDS011;16404;49.902;10.074;2023-06-22T11:51:41;13.18;;;5.32;;
29430;SDS011;16404;49.902;10.074;2023-06-22T11:57:10;9.77;;;5.78;;
29430;SDS011;16404;49.902;10.074;2023-06-22T12:02:39;10.75;;;5.32;;
29430;SDS011;16404;49.902;10.074;2023-06-22T12:05:23;9.98;;;5.60;;
29430;SDS011;16404;49.902;10.074;2023-06-22T12:08:08;10.75;;;5.32;;
29430;SDS011;16404;49.902;10.074;2023-06-22T12:13:37;9.15;;;5.13;;
29430;SDS011;16404;49.902;10.074;2023-06-22T12:16:21;8.05;;;5.35;;
29430;SDS011;16404;49.902;10.074;2023-06-22T12:19:07;13.98;;;5.28;;
29430;SDS011;16404;49.902;10.074;2023-06-22T12:21:52;9.38;;;5.00;;
29430;SDS011;16404;49.902;10.074;2023-06-22T12:24:37;9.40;;;5.00;;
29430;SDS011;16404;49.902;10.074;2023-06-22T12:30:06;11.10;;;5.05;;
29430;SDS011;16404;49.902;10.074;2023-06-22T12:32:52;17.67;;;5.35;;
29430;SDS011;16404;49.902;10.074;2023-06-22T12:38:20;8.90;;;5.00;;
29430;SDS011;16404;49.902;10.074;2023-06-22T12:41:06;13.23;;;5.43;;
29430;SDS011;16404;49.902;10.074;2023-06-22T12:46:35;15.63;;;5.53;;
29430;SDS011;16404;49.902;10.074;2023-06-22T12:49:21;13.13;;;5.60;;
29430;SDS011;16404;49.902;10.074;2023-06-22T12:52:09;9.05;;;5.13;;
29430;SDS011;16404;49.902;10.074;2023-06-22T12:54:54;10.10;;;5.22;;
29430;SDS011;16404;49.902;10.074;2023-06-22T12:57:39;10.23;;;5.22;;
29430;SDS011;16404;49.902;10.074;2023-06-22T13:03:08;12.43;;;5.40;;
29430;SDS011;16404;49.902;10.074;2023-06-22T13:05:53;9.70;;;5.00;;
29430;SDS011;16404;49.902;10.074;2023-06-22T13:08:37;11.20;;;5.57;;
29430;SDS011;16404;49.902;10.074;2023-06-22T13:11:22;11.05;;;5.57;;
29430;SDS011;16404;49.902;10.074;2023-06-22T13:14:06;9.60;;;5.30;;
29430;SDS011;16404;49.902;10.074;2023-06-22T13:16:51;12.60;;;5.30;;
29430;SDS011;16404;49.902;10.074;2023-06-22T13:19:35;13.48;;;5.32;;
29430;SDS011;16404;49.902;10.074;2023-06-22T13:25:13;14.98;;;5.90;;
29430;SDS011;16404;49.902;10.074;2023-06-22T13:28:02;11.77;;;5.70;;
29430;SDS011;16404;49.902;10.074;2023-06-22T13:30:47;11.57;;;5.60;;
29430;SDS011;16404;49.902;10.074;2023-06-22T13:33:32;11.50;;;5.72;;
29430;SDS011;16404;49.902;10.074;2023-06-22T13:36:16;9.73;;;5.20;;
29430;SDS011;16404;49.902;10.074;2023-06-22T13:39:01;9.73;;;5.28;;
29430;SDS011;16404;49.902;10.074;2023-06-22T13:41:45;11.95;;;5.13;;
29430;SDS011;16404;49.902;10.074;2023-06-22T13:44:30;11.15;;;5.97;;
29430;SDS011;16404;49.902;10.074;2023-06-22T13:47:15;11.95;;;5.35;;
29430;SDS011;16404;49.902;10.074;2023-06-22T13:52:44;18.73;;;5.22;;
29430;SDS011;16404;49.902;10.074;2023-06-22T13:58:12;9.43;;;5.13;;
29430;SDS011;16404;49.902;10.074;2023-06-22T14:03:41;11.57;;;5.70;;
29430;SDS011;16404;49.902;10.074;2023-06-22T14:06:28;10.02;;;5.43;;
29430;SDS011;16404;49.902;10.074;2023-06-22T14:09:13;11.82;;;5.80;;
29430;SDS011;16404;49.902;10.074;2023-06-22T14:14:46;11.40;;;5.38;;
29430;SDS011;16404;49.902;10.074;2023-06-22T14:20:15;10.77;;;5.40;;
29430;SDS011;16404;49.902;10.074;2023-06-22T14:25:44;11.23;;;5.63;;
29430;SDS011;16404;49.902;10.074;2023-06-22T14:31:14;12.50;;;5.70;;
29430;SDS011;16404;49.902;10.074;2023-06-22T14:33:58;11.10;;;5.50;;
29430;SDS011;16404;49.902;10.074;2023-06-22T14:36:44;10.95;;;5.80;;
29430;SDS011;16404;49.902;10.074;2023-06-22T14:39:28;9.70;;;5.60;;
29430;SDS011;16404;49.902;10.074;2023-06-22T14:42:13;12.52;;;5.50;;
29430;SDS011;16404;49.902;10.074;2023-06-22T14:44:57;14.00;;;6.00;;
29430;SDS011;16404;49.902;10.074;2023-06-22T14:50:26;12.60;;;4.78;;
29430;SDS011;16404;49.902;10.074;2023-06-22T14:53:11;8.82;;;5.13;;
29430;SDS011;16404;49.902;10.074;2023-06-22T14:55:55;14.13;;;5.97;;
29430;SDS011;16404;49.902;10.074;2023-06-22T14:58:40;13.93;;;5.13;;
29430;SDS011;16404;49.902;10.074;2023-06-22T15:01:29;13.98;;;6.00;;
29430;SDS011;16404;49.902;10.074;2023-06-22T15:04:14;11.80;;;4.93;;
29430;SDS011;16404;49.902;10.074;2023-06-22T15:06:59;10.07;;;5.65;;
29430;SDS011;16404;49.902;10.074;2023-06-22T15:12:28;13.85;;;4.95;;
29430;SDS011;16404;49.902;10.074;2023-06-22T15:15:13;14.45;;;5.45;;
29430;SDS011;16404;49.902;10.074;2023-06-22T15:20:42;11.45;;;4.72;;
29430;SDS011;16404;49.902;10.074;2023-06-22T15:23:30;13.68;;;5.10;;
29430;SDS011;16404;49.902;10.074;2023-06-22T15:26:15;9.82;;;4.47;;
29430;SDS011;16404;49.902;10.074;2023-06-22T15:28:59;10.65;;;4.55;;
29430;SDS011;16404;49.902;10.074;2023-06-22T15:34:28;10.40;;;4.32;;
29430;SDS011;16404;49.902;10.074;2023-06-22T15:37:12;13.05;;;4.43;;
29430;SDS011;16404;49.902;10.074;2023-06-22T15:42:42;11.82;;;4.13;;
29430;SDS011;16404;49.902;10.074;2023-06-22T15:45:27;12.95;;;4.28;;
29430;SDS011;16404;49.902;10.074;2023-06-22T15:48:12;13.18;;;4.32;;
29430;SDS011;16404;49.902;10.074;2023-06-22T15:53:41;14.35;;;4.80;;
29430;SDS011;16404;49.902;10.074;2023-06-22T15:59:10;15.40;;;4.60;;
29430;SDS011;16404;49.902;10.074;2023-06-22T16:04:39;10.45;;;4.38;;
29430;SDS011;16404;49.902;10.074;2023-06-22T16:10:09;16.27;;;4.40;;
29430;SDS011;16404;49.902;10.074;2023-06-22T16:15:37;15.05;;;4.25;;
29430;SDS011;16404;49.902;10.074;2023-06-22T16:21:06;15.00;;;4.07;;
29430;SDS011;16404;49.902;10.074;2023-06-22T16:26:38;16.45;;;4.70;;
29430;SDS011;16404;49.902;10.074;2023-06-22T16:29:24;14.77;;;3.72;;
29430;SDS011;16404;49.902;10.074;2023-06-22T16:34:53;15.90;;;4.15;;
29430;SDS011;16404;49.902;10.074;2023-06-22T16:37:38;21.85;;;4.32;;
29430;SDS011;16404;49.902;10.074;2023-06-22T16:40:22;14.18;;;3.83;;
29430;SDS011;16404;49.902;10.074;2023-06-22T16:45:51;11.52;;;4.30;;
29430;SDS011;16404;49.902;10.074;2023-06-22T16:48:36;13.13;;;4.25;;
29430;SDS011;16404;49.902;10.074;2023-06-22T16:51:21;12.55;;;4.13;;
29430;SDS011;16404;49.902;10.074;2023-06-22T16:54:05;14.15;;;3.88;;
29430;SDS011;16404;49.902;10.074;2023-06-22T16:56:50;17.75;;;4.45;;
29430;SDS011;16404;49.902;10.074;2023-06-22T16:59:36;13.15;;;3.92;;
29430;SDS011;16404;49.902;10.074;2023-06-22T17:02:22;15.32;;;3.90;;
29430;SDS011;16404;49.902;10.074;2023-06-22T17:05:08;20.65;;;4.40;;
29430;SDS011;16404;49.902;10.074;2023-06-22T17:07:53;10.35;;;4.15;;
29430;SDS011;16404;49.902;10.074;2023-06-22T17:10:41;11.15;;;3.83;;
29430;SDS011;16404;49.902;10.074;2023-06-22T17:13:26;10.35;;;3.83;;
29430;SDS011;16404;49.902;10.074;2023-06-22T17:16:11;14.48;;;4.18;;
29430;SDS011;16404;49.902;10.074;2023-06-22T17:18:56;11.95;;;4.00;;
29430;SDS011;16404;49.902;10.074;2023-06-22T17:21:43;13.40;;;3.97;;
29430;SDS011;16404;49.902;10.074;2023-06-22T17:24:29;15.80;;;4.53;;
29430;SDS011;16404;49.902;10.074;2023-06-22T17:27:14;18.02;;;4.15;;
29430;SDS011;16404;49.902;10.074;2023-06-22T17:30:10;20.45;;;4.13;;
29430;SDS011;16404;49.902;10.074;2023-06-22T17:33:00;14.45;;;5.20;;
29430;SDS011;16404;49.902;10.074;2023-06-22T17:35:45;14.30;;;5.03;;
29430;SDS011;16404;49.902;10.074;2023-06-22T17:38:31;10.77;;;3.95;;
29430;SDS011;16404;49.902;10.074;2023-06-22T17:41:20;12.15;;;4.28;;
29430;SDS011;16404;49.902;10.074;2023-06-22T17:44:05;14.20;;;4.10;;
29430;SDS011;16404;49.902;10.074;2023-06-22T17:46:51;17.25;;;4.60;;
29430;SDS011;16404;49.902;10.074;2023-06-22T17:49:39;15.30;;;4.20;;
29430;SDS011;16404;49.902;10.074;2023-06-22T17:52:26;14.40;;;4.30;;
29430;SDS011;16404;49.902;10.074;2023-06-22T17:55:10;11.38;;;3.63;;
29430;SDS011;16404;49.902;10.074;2023-06-22T17:57:55;12.52;;;4.22;;
29430;SDS011;16404;49.902;10.074;2023-06-22T18:00:41;14.07;;;4.28;;
29430;SDS011;16404;49.902;10.074;2023-06-22T18:03:28;11.45;;;4.68;;
29430;SDS011;16404;49.902;10.074;2023-06-22T18:06:13;13.50;;;4.05;;
29430;SDS011;16404;49.902;10.074;2023-06-22T18:08:59;16.52;;;4.57;;
29430;SDS011;16404;49.902;10.074;2023-06-22T18:11:45;13.80;;;4.28;;
29430;SDS011;16404;49.902;10.074;2023-06-22T18:14:30;15.80;;;4.93;;
29430;SDS011;16404;49.902;10.074;2023-06-22T18:17:17;15.45;;;4.72;;
29430;SDS011;16404;49.902;10.074;2023-06-22T18:20:04;10.50;;;4.28;;
29430;SDS011;16404;49.902;10.074;2023-06-22T18:22:54;16.58;;;3.97;;
29430;SDS011;16404;49.902;10.074;2023-06-22T18:25:38;13.88;;;4.13;;
29430;SDS011;16404;49.902;10.074;2023-06-22T18:28:25;14.85;;;4.13;;
29430;SDS011;16404;49.902;10.074;2023-06-22T18:31:10;13.80;;;4.13;;
29430;SDS011;16404;49.902;10.074;2023-06-22T18:33:58;13.82;;;4.00;;
29430;SDS011;16404;49.902;10.074;2023-06-22T18:36:48;12.30;;;4.07;;
29430;SDS011;16404;49.902;10.074;2023-06-22T18:39:36;18.25;;;4.07;;